sensor_id;sensor_type;location;lat;lon;timestamp;P1;durP1;ratioP1;P2;durP2;ratioP2
18501;SDS011;68437;52.236;5.710;2023-05-18T00:01:08;19.23;;;5.47;;
18501;SDS011;68437;52.236;5.710;2023-05-18T00:03:36;15.15;;;4.82;;
18501;SDS011;68437;52.236;5.710;2023-05-18T00:06:03;16.25;;;5.50;;
18501;SDS011;68437;52.236;5.710;2023-05-18T00:08:32;13.68;;;5.18;;
18501;SDS011;68437;52.236;5.710;2023-05-18T00:10:59;14.00;;;5.97;;
18501;SDS011;68437;52.236;5.710;2023-05-18T00:13:27;20.20;;;5.15;;
18501;SDS011;68437;52.236;5.710;2023-05-18T00:15:54;15.48;;;5.47;;
18501;SDS011;68437;52.236;5.710;2023-05-18T00:18:21;12.05;;;5.00;;
18501;SDS011;68437;52.236;5.710;2023-05-18T00:20:50;17.35;;;5.30;;
18501;SDS011;68437;52.236;5.710;2023-05-18T00:23:23;13.45;;;4.97;;
18501;SDS011;68437;52.236;5.710;2023-05-18T00:25:55;15.15;;;5.05;;
18501;SDS011;68437;52.236;5.710;2023-05-18T00:28:22;23.13;;;5.70;;
18501;SDS011;68437;52.236;5.710;2023-05-18T00:30:49;15.63;;;5.70;;
18501;SDS011;68437;52.236;5.710;2023-05-18T00:33:16;14.57;;;5.20;;
18501;SDS011;68437;52.236;5.710;2023-05-18T00:35:43;13.73;;;5.10;;
18501;SDS011;68437;52.236;5.710;2023-05-18T00:38:10;18.27;;;5.63;;
18501;SDS011;68437;52.236;5.710;2023-05-18T00:40:39;16.38;;;5.47;;
18501;SDS011;68437;52.236;5.710;2023-05-18T00:43:07;14.30;;;4.93;;
18501;SDS011;68437;52.236;5.710;2023-05-18T00:45:34;15.40;;;5.75;;
18501;SDS011;68437;52.236;5.710;2023-05-18T00:48:01;13.95;;;5.18;;
18501;SDS011;68437;52.236;5.710;2023-05-18T00:50:28;13.23;;;4.97;;
18501;SDS011;68437;52.236;5.710;2023-05-18T00:52:55;16.65;;;5.18;;
18501;SDS011;68437;52.236;5.710;2023-05-18T00:55:31;15.38;;;5.00;;
18501;SDS011;68437;52.236;5.710;2023-05-18T00:57:58;15.30;;;4.78;;
18501;SDS011;68437;52.236;5.710;2023-05-18T01:00:27;19.30;;;4.93;;
18501;SDS011;68437;52.236;5.710;2023-05-18T01:02:54;17.50;;;5.05;;
18501;SDS011;68437;52.236;5.710;2023-05-18T01:05:21;13.82;;;4.75;;
18501;SDS011;68437;52.236;5.710;2023-05-18T01:07:48;18.30;;;5.57;;
18501;SDS011;68437;52.236;5.710;2023-05-18T01:10:18;16.85;;;5.10;;
18501;SDS011;68437;52.236;5.710;2023-05-18T01:12:48;19.00;;;5.47;;
18501;SDS011;68437;52.236;5.710;2023-05-18T01:15:21;16.75;;;5.30;;
18501;SDS011;68437;52.236;5.710;2023-05-18T01:17:58;18.40;;;5.07;;
18501;SDS011;68437;52.236;5.710;2023-05-18T01:20:33;16.80;;;4.85;;
18501;SDS011;68437;52.236;5.710;2023-05-18T01:23:26;13.05;;;4.90;;
18501;SDS011;68437;52.236;5.710;2023-05-18T01:26:11;13.82;;;5.00;;
18501;SDS011;68437;52.236;5.710;2023-05-18T01:28:40;13.38;;;5.32;;
18501;SDS011;68437;52.236;5.710;2023-05-18T01:31:11;12.88;;;5.30;;
18501;SDS011;68437;52.236;5.710;2023-05-18T01:33:39;16.40;;;4.88;;
18501;SDS011;68437;52.236;5.710;2023-05-18T01:36:07;17.73;;;5.63;;
18501;SDS011;68437;52.236;5.710;2023-05-18T01:38:34;16.73;;;5.30;;
18501;SDS011;68437;52.236;5.710;2023-05-18T01:41:02;14.18;;;5.07;;
18501;SDS011;68437;52.236;5.710;2023-05-18T01:43:35;14.90;;;5.13;;
18501;SDS011;68437;52.236;5.710;2023-05-18T01:46:09;14.52;;;5.55;;
18501;SDS011;68437;52.236;5.710;2023-05-18T01:48:47;14.50;;;4.90;;
18501;SDS011;68437;52.236;5.710;2023-05-18T01:51:19;14.40;;;5.40;;
18501;SDS011;68437;52.236;5.710;2023-05-18T01:53:51;11.55;;;4.80;;
18501;SDS011;68437;52.236;5.710;2023-05-18T01:56:24;12.30;;;5.45;;
18501;SDS011;68437;52.236;5.710;2023-05-18T01:58:53;13.65;;;5.45;;
18501;SDS011;68437;52.236;5.710;2023-05-18T02:01:21;13.50;;;5.30;;
18501;SDS011;68437;52.236;5.710;2023-05-18T02:03:49;19.23;;;5.50;;
18501;SDS011;68437;52.236;5.710;2023-05-18T02:06:16;12.65;;;5.18;;
18501;SDS011;68437;52.236;5.710;2023-05-18T02:08:43;9.60;;;5.32;;
18501;SDS011;68437;52.236;5.710;2023-05-18T02:11:10;15.40;;;5.03;;
18501;SDS011;68437;52.236;5.710;2023-05-18T02:13:36;12.20;;;4.85;;
18501;SDS011;68437;52.236;5.710;2023-05-18T02:16:05;10.70;;;5.35;;
18501;SDS011;68437;52.236;5.710;2023-05-18T02:18:32;12.10;;;4.70;;
18501;SDS011;68437;52.236;5.710;2023-05-18T02:21:00;16.33;;;5.35;;
18501;SDS011;68437;52.236;5.710;2023-05-18T02:23:28;9.68;;;5.03;;
18501;SDS011;68437;52.236;5.710;2023-05-18T02:25:55;18.77;;;5.00;;
18501;SDS011;68437;52.236;5.710;2023-05-18T02:28:22;13.48;;;5.57;;
18501;SDS011;68437;52.236;5.710;2023-05-18T02:30:49;19.42;;;5.30;;
18501;SDS011;68437;52.236;5.710;2023-05-18T02:33:17;11.73;;;5.28;;
18501;SDS011;68437;52.236;5.710;2023-05-18T02:35:50;18.30;;;5.38;;
18501;SDS011;68437;52.236;5.710;2023-05-18T02:38:18;18.33;;;5.60;;
18501;SDS011;68437;52.236;5.710;2023-05-18T02:40:45;15.23;;;5.00;;
18501;SDS011;68437;52.236;5.710;2023-05-18T02:43:12;16.73;;;5.90;;
18501;SDS011;68437;52.236;5.710;2023-05-18T02:45:39;16.83;;;5.40;;
18501;SDS011;68437;52.236;5.710;2023-05-18T02:48:06;14.77;;;5.50;;
18501;SDS011;68437;52.236;5.710;2023-05-18T02:50:34;12.68;;;5.20;;
18501;SDS011;68437;52.236;5.710;2023-05-18T02:53:00;14.02;;;5.60;;
18501;SDS011;68437;52.236;5.710;2023-05-18T02:55:27;13.35;;;5.18;;
18501;SDS011;68437;52.236;5.710;2023-05-18T02:57:54;13.77;;;5.22;;
18501;SDS011;68437;52.236;5.710;2023-05-18T03:00:22;15.10;;;5.70;;
18501;SDS011;68437;52.236;5.710;2023-05-18T03:02:49;17.10;;;5.50;;
18501;SDS011;68437;52.236;5.710;2023-05-18T03:05:15;15.45;;;5.70;;
18501;SDS011;68437;52.236;5.710;2023-05-18T03:07:49;15.90;;;5.60;;
18501;SDS011;68437;52.236;5.710;2023-05-18T03:10:16;10.55;;;4.75;;
18501;SDS011;68437;52.236;5.710;2023-05-18T03:12:43;12.25;;;5.28;;
18501;SDS011;68437;52.236;5.710;2023-05-18T03:15:10;12.20;;;4.95;;
18501;SDS011;68437;52.236;5.710;2023-05-18T03:17:38;12.15;;;5.20;;
18501;SDS011;68437;52.236;5.710;2023-05-18T03:20:06;16.85;;;5.43;;
18501;SDS011;68437;52.236;5.710;2023-05-18T03:22:35;16.08;;;5.30;;
18501;SDS011;68437;52.236;5.710;2023-05-18T03:25:05;12.38;;;4.75;;
18501;SDS011;68437;52.236;5.710;2023-05-18T03:27:32;19.88;;;5.30;;
18501;SDS011;68437;52.236;5.710;2023-05-18T03:29:59;11.38;;;4.97;;
18501;SDS011;68437;52.236;5.710;2023-05-18T03:32:26;12.38;;;5.10;;
18501;SDS011;68437;52.236;5.710;2023-05-18T03:34:55;14.55;;;5.00;;
18501;SDS011;68437;52.236;5.710;2023-05-18T03:37:25;15.45;;;5.28;;
18501;SDS011;68437;52.236;5.710;2023-05-18T03:39:57;13.40;;;5.28;;
18501;SDS011;68437;52.236;5.710;2023-05-18T03:42:26;15.48;;;4.72;;
18501;SDS011;68437;52.236;5.710;2023-05-18T03:44:53;12.43;;;4.70;;
18501;SDS011;68437;52.236;5.710;2023-05-18T03:47:20;12.13;;;4.88;;
18501;SDS011;68437;52.236;5.710;2023-05-18T03:49:47;10.30;;;4.85;;
18501;SDS011;68437;52.236;5.710;2023-05-18T03:52:15;13.45;;;4.40;;
18501;SDS011;68437;52.236;5.710;2023-05-18T03:54:46;16.98;;;5.05;;
18501;SDS011;68437;52.236;5.710;2023-05-18T03:57:14;11.65;;;4.70;;
18501;SDS011;68437;52.236;5.710;2023-05-18T03:59:42;18.30;;;5.10;;
18501;SDS011;68437;52.236;5.710;2023-05-18T04:02:10;18.52;;;5.40;;
18501;SDS011;68437;52.236;5.710;2023-05-18T04:04:37;14.43;;;5.00;;
18501;SDS011;68437;52.236;5.710;2023-05-18T04:07:06;9.40;;;4.60;;
18501;SDS011;68437;52.236;5.710;2023-05-18T04:09:33;22.08;;;5.03;;
18501;SDS011;68437;52.236;5.710;2023-05-18T04:12:01;20.20;;;4.85;;
18501;SDS011;68437;52.236;5.710;2023-05-18T04:14:28;11.27;;;5.03;;
18501;SDS011;68437;52.236;5.710;2023-05-18T04:16:58;16.27;;;5.72;;
18501;SDS011;68437;52.236;5.710;2023-05-18T04:19:28;16.67;;;5.18;;
18501;SDS011;68437;52.236;5.710;2023-05-18T04:21:56;14.95;;;5.38;;
18501;SDS011;68437;52.236;5.710;2023-05-18T04:24:23;18.40;;;6.00;;
18501;SDS011;68437;52.236;5.710;2023-05-18T04:26:51;16.70;;;5.38;;
18501;SDS011;68437;52.236;5.710;2023-05-18T04:29:18;15.40;;;5.18;;
18501;SDS011;68437;52.236;5.710;2023-05-18T04:31:45;18.20;;;5.43;;
18501;SDS011;68437;52.236;5.710;2023-05-18T04:34:14;24.40;;;5.63;;
18501;SDS011;68437;52.236;5.710;2023-05-18T04:36:43;20.52;;;5.60;;
18501;SDS011;68437;52.236;5.710;2023-05-18T04:39:10;17.30;;;5.82;;
18501;SDS011;68437;52.236;5.710;2023-05-18T04:41:37;20.13;;;5.35;;
18501;SDS011;68437;52.236;5.710;2023-05-18T04:44:06;12.40;;;5.40;;
18501;SDS011;68437;52.236;5.710;2023-05-18T04:46:33;19.00;;;5.43;;
18501;SDS011;68437;52.236;5.710;2023-05-18T04:49:03;13.73;;;5.47;;
18501;SDS011;68437;52.236;5.710;2023-05-18T04:51:31;13.05;;;5.43;;
18501;SDS011;68437;52.236;5.710;2023-05-18T04:53:59;17.23;;;6.07;;
18501;SDS011;68437;52.236;5.710;2023-05-18T04:56:27;11.05;;;5.25;;
18501;SDS011;68437;52.236;5.710;2023-05-18T04:58:53;16.80;;;5.13;;
18501;SDS011;68437;52.236;5.710;2023-05-18T05:01:23;14.48;;;5.68;;
18501;SDS011;68437;52.236;5.710;2023-05-18T05:03:50;16.35;;;5.75;;
18501;SDS011;68437;52.236;5.710;2023-05-18T05:06:17;16.05;;;5.43;;
18501;SDS011;68437;52.236;5.710;2023-05-18T05:08:48;17.88;;;5.20;;
18501;SDS011;68437;52.236;5.710;2023-05-18T05:11:15;20.70;;;5.20;;
18501;SDS011;68437;52.236;5.710;2023-05-18T05:13:42;18.60;;;4.97;;
18501;SDS011;68437;52.236;5.710;2023-05-18T05:16:09;16.17;;;5.43;;
18501;SDS011;68437;52.236;5.710;2023-05-18T05:18:36;19.83;;;5.65;;
18501;SDS011;68437;52.236;5.710;2023-05-18T05:21:03;14.50;;;4.72;;
18501;SDS011;68437;52.236;5.710;2023-05-18T05:23:30;19.02;;;5.18;;
18501;SDS011;68437;52.236;5.710;2023-05-18T05:25:58;13.68;;;5.22;;
18501;SDS011;68437;52.236;5.710;2023-05-18T05:28:25;14.48;;;5.10;;
18501;SDS011;68437;52.236;5.710;2023-05-18T05:30:52;12.55;;;4.32;;
18501;SDS011;68437;52.236;5.710;2023-05-18T05:33:19;16.40;;;4.70;;
18501;SDS011;68437;52.236;5.710;2023-05-18T05:35:47;15.57;;;5.00;;
18501;SDS011;68437;52.236;5.710;2023-05-18T05:38:14;12.75;;;4.90;;
18501;SDS011;68437;52.236;5.710;2023-05-18T05:40:40;14.25;;;5.20;;
18501;SDS011;68437;52.236;5.710;2023-05-18T05:43:09;13.13;;;4.60;;
18501;SDS011;68437;52.236;5.710;2023-05-18T05:45:35;14.25;;;4.45;;
18501;SDS011;68437;52.236;5.710;2023-05-18T05:48:02;13.80;;;4.80;;
18501;SDS011;68437;52.236;5.710;2023-05-18T05:50:30;12.23;;;4.50;;
18501;SDS011;68437;52.236;5.710;2023-05-18T05:52:57;18.40;;;4.82;;
18501;SDS011;68437;52.236;5.710;2023-05-18T05:55:24;16.13;;;4.47;;
18501;SDS011;68437;52.236;5.710;2023-05-18T05:57:51;15.65;;;4.10;;
18501;SDS011;68437;52.236;5.710;2023-05-18T06:00:20;15.43;;;4.18;;
18501;SDS011;68437;52.236;5.710;2023-05-18T06:02:47;15.77;;;3.92;;
18501;SDS011;68437;52.236;5.710;2023-05-18T06:05:14;14.10;;;3.30;;
18501;SDS011;68437;52.236;5.710;2023-05-18T06:07:41;12.90;;;3.53;;
18501;SDS011;68437;52.236;5.710;2023-05-18T06:10:08;10.73;;;2.75;;
18501;SDS011;68437;52.236;5.710;2023-05-18T06:12:35;10.75;;;3.38;;
18501;SDS011;68437;52.236;5.710;2023-05-18T06:15:01;8.45;;;2.60;;
18501;SDS011;68437;52.236;5.710;2023-05-18T06:17:30;12.32;;;2.80;;
18501;SDS011;68437;52.236;5.710;2023-05-18T06:19:57;14.48;;;2.53;;
18501;SDS011;68437;52.236;5.710;2023-05-18T06:22:23;14.43;;;2.75;;
18501;SDS011;68437;52.236;5.710;2023-05-18T06:24:50;11.57;;;2.53;;
18501;SDS011;68437;52.236;5.710;2023-05-18T06:27:19;11.25;;;2.38;;
18501;SDS011;68437;52.236;5.710;2023-05-18T06:29:47;11.10;;;2.85;;
18501;SDS011;68437;52.236;5.710;2023-05-18T06:32:14;13.27;;;2.50;;
18501;SDS011;68437;52.236;5.710;2023-05-18T06:34:42;9.02;;;2.67;;
18501;SDS011;68437;52.236;5.710;2023-05-18T06:37:10;15.63;;;2.67;;
18501;SDS011;68437;52.236;5.710;2023-05-18T06:39:39;10.85;;;2.72;;
18501;SDS011;68437;52.236;5.710;2023-05-18T06:42:06;12.70;;;3.10;;
18501;SDS011;68437;52.236;5.710;2023-05-18T06:44:35;9.13;;;2.67;;
18501;SDS011;68437;52.236;5.710;2023-05-18T06:47:02;12.90;;;2.45;;
18501;SDS011;68437;52.236;5.710;2023-05-18T06:52:12;11.48;;;2.55;;
18501;SDS011;68437;52.236;5.710;2023-05-18T06:54:40;13.02;;;2.83;;
18501;SDS011;68437;52.236;5.710;2023-05-18T06:57:07;13.68;;;2.80;;
18501;SDS011;68437;52.236;5.710;2023-05-18T06:59:34;13.93;;;3.00;;
18501;SDS011;68437;52.236;5.710;2023-05-18T07:02:01;16.10;;;2.70;;
18501;SDS011;68437;52.236;5.710;2023-05-18T07:04:29;11.15;;;3.15;;
18501;SDS011;68437;52.236;5.710;2023-05-18T07:06:57;10.10;;;2.97;;
18501;SDS011;68437;52.236;5.710;2023-05-18T07:09:24;9.52;;;2.58;;
18501;SDS011;68437;52.236;5.710;2023-05-18T07:11:51;18.35;;;3.30;;
18501;SDS011;68437;52.236;5.710;2023-05-18T07:14:18;11.85;;;2.55;;
18501;SDS011;68437;52.236;5.710;2023-05-18T07:16:44;14.52;;;3.00;;
18501;SDS011;68437;52.236;5.710;2023-05-18T07:19:11;13.40;;;2.65;;
18501;SDS011;68437;52.236;5.710;2023-05-18T07:21:38;12.10;;;2.75;;
18501;SDS011;68437;52.236;5.710;2023-05-18T07:24:09;10.98;;;2.72;;
18501;SDS011;68437;52.236;5.710;2023-05-18T07:26:36;10.88;;;2.83;;
18501;SDS011;68437;52.236;5.710;2023-05-18T07:29:03;11.65;;;2.80;;
18501;SDS011;68437;52.236;5.710;2023-05-18T07:31:30;9.77;;;2.70;;
18501;SDS011;68437;52.236;5.710;2023-05-18T07:33:57;15.02;;;2.67;;
18501;SDS011;68437;52.236;5.710;2023-05-18T07:36:26;10.32;;;2.33;;
18501;SDS011;68437;52.236;5.710;2023-05-18T07:38:53;14.13;;;2.90;;
18501;SDS011;68437;52.236;5.710;2023-05-18T07:41:22;16.08;;;3.15;;
18501;SDS011;68437;52.236;5.710;2023-05-18T07:43:49;13.63;;;3.00;;
18501;SDS011;68437;52.236;5.710;2023-05-18T07:46:16;16.55;;;3.15;;
18501;SDS011;68437;52.236;5.710;2023-05-18T07:48:43;19.27;;;2.80;;
18501;SDS011;68437;52.236;5.710;2023-05-18T07:51:10;15.43;;;3.17;;
18501;SDS011;68437;52.236;5.710;2023-05-18T07:53:37;9.88;;;2.72;;
18501;SDS011;68437;52.236;5.710;2023-05-18T07:56:05;18.58;;;3.30;;
18501;SDS011;68437;52.236;5.710;2023-05-18T07:58:34;7.45;;;2.55;;
18501;SDS011;68437;52.236;5.710;2023-05-18T08:01:00;11.68;;;2.58;;
18501;SDS011;68437;52.236;5.710;2023-05-18T08:03:27;8.82;;;2.65;;
18501;SDS011;68437;52.236;5.710;2023-05-18T08:05:54;14.15;;;3.03;;
18501;SDS011;68437;52.236;5.710;2023-05-18T08:08:21;10.35;;;2.97;;
18501;SDS011;68437;52.236;5.710;2023-05-18T08:10:49;14.13;;;3.17;;
18501;SDS011;68437;52.236;5.710;2023-05-18T08:13:19;16.80;;;3.22;;
18501;SDS011;68437;52.236;5.710;2023-05-18T08:15:47;11.27;;;3.30;;
18501;SDS011;68437;52.236;5.710;2023-05-18T08:18:14;14.45;;;3.10;;
18501;SDS011;68437;52.236;5.710;2023-05-18T08:20:41;16.02;;;3.30;;
18501;SDS011;68437;52.236;5.710;2023-05-18T08:23:07;12.35;;;3.33;;
18501;SDS011;68437;52.236;5.710;2023-05-18T08:25:34;14.43;;;3.45;;
18501;SDS011;68437;52.236;5.710;2023-05-18T08:28:01;14.15;;;3.50;;
18501;SDS011;68437;52.236;5.710;2023-05-18T08:30:29;16.73;;;3.53;;
18501;SDS011;68437;52.236;5.710;2023-05-18T08:32:57;14.02;;;3.28;;
18501;SDS011;68437;52.236;5.710;2023-05-18T08:35:24;16.88;;;3.65;;
18501;SDS011;68437;52.236;5.710;2023-05-18T08:37:51;10.18;;;2.97;;
18501;SDS011;68437;52.236;5.710;2023-05-18T08:40:18;15.45;;;3.17;;
18501;SDS011;68437;52.236;5.710;2023-05-18T08:42:46;11.43;;;3.53;;
18501;SDS011;68437;52.236;5.710;2023-05-18T08:45:23;11.52;;;3.08;;
18501;SDS011;68437;52.236;5.710;2023-05-18T08:47:59;12.32;;;3.22;;
18501;SDS011;68437;52.236;5.710;2023-05-18T08:50:26;15.00;;;3.38;;
18501;SDS011;68437;52.236;5.710;2023-05-18T08:52:55;11.57;;;3.08;;
18501;SDS011;68437;52.236;5.710;2023-05-18T08:55:26;9.07;;;3.05;;
18501;SDS011;68437;52.236;5.710;2023-05-18T08:57:54;12.68;;;3.20;;
18501;SDS011;68437;52.236;5.710;2023-05-18T09:00:24;11.82;;;3.20;;
18501;SDS011;68437;52.236;5.710;2023-05-18T09:02:51;10.57;;;2.92;;
18501;SDS011;68437;52.236;5.710;2023-05-18T09:05:19;12.00;;;3.38;;
18501;SDS011;68437;52.236;5.710;2023-05-18T09:07:47;11.70;;;3.00;;
18501;SDS011;68437;52.236;5.710;2023-05-18T09:10:15;11.30;;;3.08;;
18501;SDS011;68437;52.236;5.710;2023-05-18T09:12:43;10.13;;;3.00;;
18501;SDS011;68437;52.236;5.710;2023-05-18T09:15:12;12.02;;;3.22;;
18501;SDS011;68437;52.236;5.710;2023-05-18T09:17:40;9.73;;;3.10;;
18501;SDS011;68437;52.236;5.710;2023-05-18T09:20:07;10.30;;;3.15;;
18501;SDS011;68437;52.236;5.710;2023-05-18T09:22:36;12.02;;;3.38;;
18501;SDS011;68437;52.236;5.710;2023-05-18T09:25:04;11.20;;;3.50;;
18501;SDS011;68437;52.236;5.710;2023-05-18T09:27:34;13.00;;;3.60;;
18501;SDS011;68437;52.236;5.710;2023-05-18T09:30:01;10.07;;;2.97;;
18501;SDS011;68437;52.236;5.710;2023-05-18T09:32:28;7.85;;;3.10;;
18501;SDS011;68437;52.236;5.710;2023-05-18T09:35:02;14.95;;;3.53;;
18501;SDS011;68437;52.236;5.710;2023-05-18T09:37:30;8.95;;;2.97;;
18501;SDS011;68437;52.236;5.710;2023-05-18T09:39:59;7.75;;;3.20;;
18501;SDS011;68437;52.236;5.710;2023-05-18T09:42:35;11.75;;;3.40;;
18501;SDS011;68437;52.236;5.710;2023-05-18T09:45:03;12.43;;;3.28;;
18501;SDS011;68437;52.236;5.710;2023-05-18T09:47:40;12.82;;;3.60;;
18501;SDS011;68437;52.236;5.710;2023-05-18T09:50:07;10.77;;;3.83;;
18501;SDS011;68437;52.236;5.710;2023-05-18T09:52:39;13.50;;;3.47;;
18501;SDS011;68437;52.236;5.710;2023-05-18T09:55:08;9.32;;;3.17;;
18501;SDS011;68437;52.236;5.710;2023-05-18T09:57:37;13.98;;;3.17;;
18501;SDS011;68437;52.236;5.710;2023-05-18T10:00:06;14.27;;;3.67;;
18501;SDS011;68437;52.236;5.710;2023-05-18T10:02:36;11.30;;;3.35;;
18501;SDS011;68437;52.236;5.710;2023-05-18T10:05:05;10.77;;;3.65;;
18501;SDS011;68437;52.236;5.710;2023-05-18T10:07:43;11.93;;;3.50;;
18501;SDS011;68437;52.236;5.710;2023-05-18T10:10:11;11.77;;;3.55;;
18501;SDS011;68437;52.236;5.710;2023-05-18T10:12:38;13.68;;;3.70;;
18501;SDS011;68437;52.236;5.710;2023-05-18T10:15:07;11.75;;;3.55;;
18501;SDS011;68437;52.236;5.710;2023-05-18T10:17:35;10.55;;;3.08;;
18501;SDS011;68437;52.236;5.710;2023-05-18T10:20:04;13.68;;;3.40;;
18501;SDS011;68437;52.236;5.710;2023-05-18T10:22:35;11.88;;;3.20;;
18501;SDS011;68437;52.236;5.710;2023-05-18T10:25:03;10.45;;;3.50;;
18501;SDS011;68437;52.236;5.710;2023-05-18T10:27:33;11.90;;;3.67;;
18501;SDS011;68437;52.236;5.710;2023-05-18T10:30:01;13.63;;;3.42;;
18501;SDS011;68437;52.236;5.710;2023-05-18T10:32:29;12.85;;;3.40;;
18501;SDS011;68437;52.236;5.710;2023-05-18T10:34:57;10.43;;;3.08;;
18501;SDS011;68437;52.236;5.710;2023-05-18T10:37:25;12.57;;;3.50;;
18501;SDS011;68437;52.236;5.710;2023-05-18T10:39:54;15.27;;;3.33;;
18501;SDS011;68437;52.236;5.710;2023-05-18T10:42:23;7.05;;;3.05;;
18501;SDS011;68437;52.236;5.710;2023-05-18T10:44:52;11.63;;;3.40;;
18501;SDS011;68437;52.236;5.710;2023-05-18T10:47:21;8.65;;;3.45;;
18501;SDS011;68437;52.236;5.710;2023-05-18T10:49:52;17.20;;;3.85;;
18501;SDS011;68437;52.236;5.710;2023-05-18T10:52:19;10.68;;;3.20;;
18501;SDS011;68437;52.236;5.710;2023-05-18T10:54:46;11.05;;;3.40;;
18501;SDS011;68437;52.236;5.710;2023-05-18T10:57:14;10.85;;;3.65;;
18501;SDS011;68437;52.236;5.710;2023-05-18T10:59:45;13.30;;;3.30;;
18501;SDS011;68437;52.236;5.710;2023-05-18T11:02:16;11.95;;;3.65;;
18501;SDS011;68437;52.236;5.710;2023-05-18T11:04:44;11.95;;;3.10;;
18501;SDS011;68437;52.236;5.710;2023-05-18T11:07:12;11.65;;;3.10;;
18501;SDS011;68437;52.236;5.710;2023-05-18T11:09:40;10.25;;;3.38;;
18501;SDS011;68437;52.236;5.710;2023-05-18T11:12:10;13.57;;;3.30;;
18501;SDS011;68437;52.236;5.710;2023-05-18T11:14:46;12.82;;;3.40;;
18501;SDS011;68437;52.236;5.710;2023-05-18T11:17:16;9.55;;;3.20;;
18501;SDS011;68437;52.236;5.710;2023-05-18T11:22:44;9.40;;;3.00;;
18501;SDS011;68437;52.236;5.710;2023-05-18T11:28:10;8.27;;;3.40;;
18501;SDS011;68437;52.236;5.710;2023-05-18T11:30:49;11.00;;;3.38;;
18501;SDS011;68437;52.236;5.710;2023-05-18T11:33:21;8.65;;;3.45;;
18501;SDS011;68437;52.236;5.710;2023-05-18T11:35:53;9.07;;;3.05;;
18501;SDS011;68437;52.236;5.710;2023-05-18T11:38:21;11.13;;;3.15;;
18501;SDS011;68437;52.236;5.710;2023-05-18T11:40:48;10.95;;;3.10;;
18501;SDS011;68437;52.236;5.710;2023-05-18T11:43:19;6.65;;;3.05;;
18501;SDS011;68437;52.236;5.710;2023-05-18T11:45:53;8.65;;;3.58;;
18501;SDS011;68437;52.236;5.710;2023-05-18T11:48:22;13.60;;;3.47;;
18501;SDS011;68437;52.236;5.710;2023-05-18T11:50:51;11.63;;;3.80;;
18501;SDS011;68437;52.236;5.710;2023-05-18T11:53:20;9.90;;;3.50;;
18501;SDS011;68437;52.236;5.710;2023-05-18T11:55:48;13.70;;;3.65;;
18501;SDS011;68437;52.236;5.710;2023-05-18T11:58:18;11.88;;;3.33;;
18501;SDS011;68437;52.236;5.710;2023-05-18T12:00:45;10.23;;;3.30;;
18501;SDS011;68437;52.236;5.710;2023-05-18T12:03:14;11.48;;;3.47;;
18501;SDS011;68437;52.236;5.710;2023-05-18T12:05:42;11.07;;;3.20;;
18501;SDS011;68437;52.236;5.710;2023-05-18T12:08:14;9.30;;;3.33;;
18501;SDS011;68437;52.236;5.710;2023-05-18T12:10:43;9.65;;;3.58;;
18501;SDS011;68437;52.236;5.710;2023-05-18T12:13:11;9.25;;;3.33;;
18501;SDS011;68437;52.236;5.710;2023-05-18T12:15:38;11.40;;;3.75;;
18501;SDS011;68437;52.236;5.710;2023-05-18T12:18:06;6.97;;;3.10;;
18501;SDS011;68437;52.236;5.710;2023-05-18T12:20:32;12.90;;;3.42;;
18501;SDS011;68437;52.236;5.710;2023-05-18T12:23:01;10.43;;;3.78;;
18501;SDS011;68437;52.236;5.710;2023-05-18T12:25:28;9.38;;;3.40;;
18501;SDS011;68437;52.236;5.710;2023-05-18T12:27:55;10.07;;;3.60;;
18501;SDS011;68437;52.236;5.710;2023-05-18T12:30:24;11.20;;;3.67;;
18501;SDS011;68437;52.236;5.710;2023-05-18T12:32:58;11.95;;;3.60;;
18501;SDS011;68437;52.236;5.710;2023-05-18T12:35:26;13.95;;;4.22;;
18501;SDS011;68437;52.236;5.710;2023-05-18T12:37:55;11.52;;;3.65;;
18501;SDS011;68437;52.236;5.710;2023-05-18T12:40:25;11.60;;;3.97;;
18501;SDS011;68437;52.236;5.710;2023-05-18T12:42:53;12.35;;;3.65;;
18501;SDS011;68437;52.236;5.710;2023-05-18T12:45:22;11.13;;;3.60;;
18501;SDS011;68437;52.236;5.710;2023-05-18T12:47:54;10.10;;;4.07;;
18501;SDS011;68437;52.236;5.710;2023-05-18T12:50:21;9.55;;;3.78;;
18501;SDS011;68437;52.236;5.710;2023-05-18T12:52:50;9.88;;;4.13;;
18501;SDS011;68437;52.236;5.710;2023-05-18T12:55:18;9.07;;;3.80;;
18501;SDS011;68437;52.236;5.710;2023-05-18T12:57:58;14.40;;;4.03;;
18501;SDS011;68437;52.236;5.710;2023-05-18T13:00:25;8.82;;;3.45;;
18501;SDS011;68437;52.236;5.710;2023-05-18T13:02:52;9.52;;;3.80;;
18501;SDS011;68437;52.236;5.710;2023-05-18T13:05:22;8.75;;;3.33;;
18501;SDS011;68437;52.236;5.710;2023-05-18T13:07:49;10.52;;;3.97;;
18501;SDS011;68437;52.236;5.710;2023-05-18T13:10:16;10.63;;;3.88;;
18501;SDS011;68437;52.236;5.710;2023-05-18T13:12:45;9.57;;;3.72;;
18501;SDS011;68437;52.236;5.710;2023-05-18T13:15:15;10.45;;;3.75;;
18501;SDS011;68437;52.236;5.710;2023-05-18T13:17:55;9.05;;;3.55;;
18501;SDS011;68437;52.236;5.710;2023-05-18T13:20:28;10.82;;;4.05;;
18501;SDS011;68437;52.236;5.710;2023-05-18T13:22:58;9.00;;;3.85;;
18501;SDS011;68437;52.236;5.710;2023-05-18T13:25:30;10.23;;;4.10;;
18501;SDS011;68437;52.236;5.710;2023-05-18T13:27:57;11.73;;;4.18;;
18501;SDS011;68437;52.236;5.710;2023-05-18T13:30:26;10.18;;;4.43;;
18501;SDS011;68437;52.236;5.710;2023-05-18T13:32:52;10.75;;;3.97;;
18501;SDS011;68437;52.236;5.710;2023-05-18T13:35:22;10.57;;;4.00;;
18501;SDS011;68437;52.236;5.710;2023-05-18T13:37:49;8.10;;;3.75;;
18501;SDS011;68437;52.236;5.710;2023-05-18T13:40:17;12.63;;;4.00;;
18501;SDS011;68437;52.236;5.710;2023-05-18T13:42:45;9.80;;;4.20;;
18501;SDS011;68437;52.236;5.710;2023-05-18T13:45:12;8.45;;;3.58;;
18501;SDS011;68437;52.236;5.710;2023-05-18T13:47:41;11.82;;;3.90;;
18501;SDS011;68437;52.236;5.710;2023-05-18T13:50:14;10.30;;;3.40;;
18501;SDS011;68437;52.236;5.710;2023-05-18T13:52:41;15.35;;;4.25;;
18501;SDS011;68437;52.236;5.710;2023-05-18T13:55:08;12.57;;;3.75;;
18501;SDS011;68437;52.236;5.710;2023-05-18T13:57:35;10.98;;;3.80;;
18501;SDS011;68437;52.236;5.710;2023-05-18T14:00:02;13.40;;;4.03;;
18501;SDS011;68437;52.236;5.710;2023-05-18T14:02:34;9.02;;;3.95;;
18501;SDS011;68437;52.236;5.710;2023-05-18T14:05:02;14.57;;;3.75;;
18501;SDS011;68437;52.236;5.710;2023-05-18T14:07:32;10.02;;;3.97;;
18501;SDS011;68437;52.236;5.710;2023-05-18T14:09:59;15.60;;;3.85;;
18501;SDS011;68437;52.236;5.710;2023-05-18T14:12:26;16.23;;;4.18;;
18501;SDS011;68437;52.236;5.710;2023-05-18T14:14:53;13.02;;;3.60;;
18501;SDS011;68437;52.236;5.710;2023-05-18T14:17:22;10.30;;;3.47;;
18501;SDS011;68437;52.236;5.710;2023-05-18T14:19:54;8.60;;;3.90;;
18501;SDS011;68437;52.236;5.710;2023-05-18T14:22:22;12.65;;;3.88;;
18501;SDS011;68437;52.236;5.710;2023-05-18T14:24:50;12.77;;;3.53;;
18501;SDS011;68437;52.236;5.710;2023-05-18T14:27:17;11.38;;;3.83;;
18501;SDS011;68437;52.236;5.710;2023-05-18T14:29:44;10.68;;;3.83;;
18501;SDS011;68437;52.236;5.710;2023-05-18T14:32:11;12.50;;;3.65;;
18501;SDS011;68437;52.236;5.710;2023-05-18T14:34:41;10.90;;;3.92;;
18501;SDS011;68437;52.236;5.710;2023-05-18T14:37:08;9.02;;;3.80;;
18501;SDS011;68437;52.236;5.710;2023-05-18T14:39:36;9.45;;;4.18;;
18501;SDS011;68437;52.236;5.710;2023-05-18T14:42:03;13.57;;;3.40;;
18501;SDS011;68437;52.236;5.710;2023-05-18T14:44:30;13.93;;;3.50;;
18501;SDS011;68437;52.236;5.710;2023-05-18T14:46:57;10.55;;;3.20;;
18501;SDS011;68437;52.236;5.710;2023-05-18T14:49:24;10.23;;;3.40;;
18501;SDS011;68437;52.236;5.710;2023-05-18T14:51:50;9.13;;;3.50;;